createdAt,value
2018-09-13T00:02:03.427Z,99.90
2018-09-13T00:04:30.864Z,99.90
2018-09-13T00:06:58.319Z,99.90
2018-09-13T00:09:25.837Z,99.90
2018-09-13T00:11:53.219Z,99.90
2018-09-13T00:14:20.641Z,99.90
2018-09-13T00:16:48.135Z,99.90
2018-09-13T00:19:15.624Z,99.90
2018-09-13T00:21:43.125Z,99.90
2018-09-13T00:24:10.562Z,99.90
2018-09-13T00:26:38.016Z,99.90
2018-09-13T00:29:05.456Z,99.90
2018-09-13T00:31:32.904Z,99.90
2018-09-13T00:34:00.358Z,99.90
2018-09-13T00:36:27.812Z,99.90
2018-09-13T00:38:55.354Z,99.90
2018-09-13T00:41:22.777Z,99.90
2018-09-13T00:43:50.272Z,99.90
2018-09-13T00:46:17.715Z,99.90
2018-09-13T00:48:45.159Z,99.90
2018-09-13T00:51:12.660Z,99.90
2018-09-13T00:53:40.096Z,99.90
2018-09-13T00:56:07.503Z,99.90
2018-09-13T00:58:34.972Z,99.90
2018-09-13T01:01:02.374Z,99.90
2018-09-13T01:03:29.835Z,99.90
2018-09-13T01:05:57.300Z,99.90
2018-09-13T01:08:24.740Z,99.90
2018-09-13T01:10:52.163Z,99.90
2018-09-13T01:13:19.568Z,99.90
2018-09-13T01:15:47.018Z,99.90
2018-09-13T01:18:14.423Z,99.90
2018-09-13T01:20:41.888Z,99.90
2018-09-13T01:23:09.406Z,99.90
2018-09-13T01:25:36.816Z,99.90
2018-09-13T01:28:04.248Z,99.90
2018-09-13T01:30:31.684Z,99.90
2018-09-13T01:32:59.151Z,99.90
2018-09-13T01:35:26.591Z,99.90
2018-09-13T01:37:54.125Z,99.90
2018-09-13T01:40:21.546Z,99.90
2018-09-13T01:42:48.989Z,99.90
2018-09-13T01:45:16.413Z,99.90
2018-09-13T01:47:43.832Z,99.90
2018-09-13T01:50:11.410Z,99.90
2018-09-13T01:52:38.845Z,99.90
2018-09-13T01:55:06.301Z,99.90
2018-09-13T01:57:33.721Z,99.90
2018-09-13T02:00:01.129Z,99.90
2018-09-13T02:02:28.557Z,99.90
2018-09-13T02:04:55.995Z,99.90
2018-09-13T02:07:23.531Z,99.90
2018-09-13T02:09:50.957Z,99.90
2018-09-13T02:12:18.423Z,99.90
2018-09-13T02:14:45.828Z,99.90
2018-09-13T02:17:13.225Z,99.90
2018-09-13T02:19:40.660Z,99.90
2018-09-13T02:22:08.093Z,99.90
2018-09-13T02:24:35.521Z,99.90
2018-09-13T02:27:02.979Z,99.90
2018-09-13T02:29:30.400Z,99.90
2018-09-13T02:31:57.830Z,99.90
2018-09-13T02:34:25.289Z,99.90
2018-09-13T02:36:52.697Z,99.90
2018-09-13T02:39:20.141Z,99.90
2018-09-13T02:41:47.578Z,99.90
2018-09-13T02:44:15.020Z,99.90
2018-09-13T02:46:42.440Z,99.90
2018-09-13T02:49:10.507Z,99.90
2018-09-13T02:51:37.985Z,99.90
2018-09-13T02:54:05.501Z,99.90
2018-09-13T02:56:32.902Z,99.90
2018-09-13T02:59:00.362Z,99.90
2018-09-13T03:01:27.751Z,99.90
2018-09-13T03:03:55.221Z,99.90
2018-09-13T03:06:22.616Z,99.90
2018-09-13T03:08:50.039Z,99.90
2018-09-13T03:11:17.435Z,99.90
2018-09-13T03:13:44.856Z,99.90
2018-09-13T03:16:17.972Z,99.90
2018-09-13T03:18:45.405Z,99.90
2018-09-13T03:21:12.917Z,99.90
2018-09-13T03:23:40.388Z,99.90
2018-09-13T03:26:07.927Z,99.90
2018-09-13T03:28:35.429Z,99.90
2018-09-13T03:31:02.936Z,99.90
2018-09-13T03:33:30.404Z,99.90
2018-09-13T03:35:58.904Z,99.90
2018-09-13T03:38:26.338Z,99.90
2018-09-13T03:40:53.819Z,99.90
2018-09-13T03:43:21.241Z,99.90
2018-09-13T03:45:48.720Z,99.90
2018-09-13T03:48:16.177Z,99.90
2018-09-13T03:50:43.605Z,99.90
2018-09-13T03:53:16.919Z,99.90
2018-09-13T03:55:46.519Z,99.90
2018-09-13T03:58:14.120Z,99.90
2018-09-13T04:00:41.570Z,99.90
2018-09-13T04:03:09.096Z,99.90
2018-09-13T04:05:36.464Z,99.90
2018-09-13T04:08:08.946Z,99.90
2018-09-13T04:10:36.399Z,99.90
2018-09-13T04:13:03.824Z,99.90
2018-09-13T04:15:31.269Z,99.90
2018-09-13T04:17:58.661Z,99.90
2018-09-13T04:20:26.074Z,99.90
2018-09-13T04:22:53.509Z,99.90
2018-09-13T04:25:21.022Z,99.90
2018-09-13T04:27:48.496Z,99.90
2018-09-13T04:30:15.925Z,99.90
2018-09-13T04:32:43.374Z,99.90
2018-09-13T04:35:10.795Z,99.90
2018-09-13T04:37:38.212Z,99.90
2018-09-13T04:40:05.667Z,99.90
2018-09-13T04:42:33.064Z,99.90
2018-09-13T04:45:00.493Z,99.90
2018-09-13T04:47:27.941Z,99.90
2018-09-13T04:49:56.457Z,99.90
2018-09-13T04:52:24.897Z,99.90
2018-09-13T04:54:52.305Z,99.90
2018-09-13T04:57:19.714Z,99.90
2018-09-13T04:59:47.137Z,99.90
2018-09-13T05:02:14.621Z,99.90
2018-09-13T05:04:42.041Z,99.90
2018-09-13T05:07:10.503Z,99.90
2018-09-13T05:09:37.928Z,99.90
2018-09-13T05:12:05.363Z,99.90
2018-09-13T05:14:32.790Z,99.90
2018-09-13T05:17:00.203Z,99.90
2018-09-13T05:19:27.617Z,99.90
2018-09-13T05:21:55.085Z,99.90
2018-09-13T05:24:22.607Z,99.90
2018-09-13T05:26:49.951Z,99.90
2018-09-13T05:29:17.372Z,99.90
2018-09-13T05:31:44.862Z,99.90
2018-09-13T05:34:12.253Z,99.90
2018-09-13T05:36:39.775Z,99.90
2018-09-13T05:39:07.675Z,99.90
2018-09-13T05:41:35.201Z,99.90
2018-09-13T05:44:02.608Z,99.90
2018-09-13T05:46:30.009Z,99.90
2018-09-13T05:48:57.429Z,99.90
2018-09-13T05:51:24.850Z,99.90
2018-09-13T05:53:52.376Z,99.90
2018-09-13T05:56:19.841Z,99.90
2018-09-13T05:58:47.300Z,99.90
2018-09-13T06:01:14.814Z,99.90
2018-09-13T06:03:42.173Z,99.90
2018-09-13T06:06:09.608Z,99.90
2018-09-13T06:08:37.040Z,99.90
2018-09-13T06:11:04.538Z,99.90
2018-09-13T06:13:32.011Z,99.90
2018-09-13T06:16:00.584Z,99.90
2018-09-13T06:18:27.993Z,99.90
2018-09-13T06:20:55.425Z,99.90
2018-09-13T06:23:22.877Z,99.90
2018-09-13T06:25:50.370Z,99.90
2018-09-13T06:28:17.895Z,99.90
2018-09-13T06:30:45.346Z,99.90
2018-09-13T06:33:12.865Z,99.90
2018-09-13T06:35:40.312Z,99.90
2018-09-13T06:38:07.709Z,99.90
2018-09-13T06:40:35.108Z,99.90
2018-09-13T06:43:02.508Z,99.90
2018-09-13T06:45:30.008Z,99.90
2018-09-13T06:47:57.438Z,99.90
2018-09-13T06:50:24.905Z,99.90
2018-09-13T06:52:52.291Z,99.90
2018-09-13T06:55:19.696Z,99.90
2018-09-13T06:57:47.097Z,99.90
2018-09-13T07:00:14.518Z,99.90
2018-09-13T07:02:42.073Z,99.90
2018-09-13T07:05:09.545Z,99.90
2018-09-13T07:07:36.976Z,99.90
2018-09-13T07:10:04.389Z,99.90
2018-09-13T07:12:31.798Z,99.90
2018-09-13T07:14:59.219Z,99.90
2018-09-13T07:17:26.637Z,99.90
2018-09-13T07:19:54.130Z,99.90
2018-09-13T07:22:21.608Z,99.90
2018-09-13T07:24:49.013Z,99.90
2018-09-13T07:27:16.434Z,99.90
2018-09-13T07:29:43.852Z,99.90
2018-09-13T07:32:11.288Z,99.90
2018-09-13T07:34:38.886Z,99.90
2018-09-13T07:37:06.330Z,99.90
2018-09-13T07:39:33.762Z,99.90
2018-09-13T07:42:01.185Z,99.90
2018-09-13T07:44:28.685Z,99.90
2018-09-13T07:46:56.120Z,99.90
2018-09-13T07:49:23.616Z,99.90
2018-09-13T07:51:50.955Z,99.90
2018-09-13T07:54:18.397Z,99.90
2018-09-13T07:56:45.818Z,99.90
2018-09-13T07:59:13.294Z,99.80
2018-09-13T08:01:40.872Z,99.70
2018-09-13T08:04:08.313Z,99.20
2018-09-13T08:06:36.016Z,99.00
2018-09-13T08:09:04.675Z,98.90
2018-09-13T08:11:32.196Z,98.20
2018-09-13T08:13:59.628Z,98.10
2018-09-13T08:16:27.096Z,98.20
2018-09-13T08:18:54.559Z,97.50
2018-09-13T08:21:21.973Z,97.10
2018-09-13T08:23:49.500Z,97.60
2018-09-13T08:26:16.916Z,97.00
2018-09-13T08:28:44.424Z,97.70
2018-09-13T08:31:11.859Z,97.00
2018-09-13T08:33:39.288Z,97.50
2018-09-13T08:36:06.769Z,97.70
2018-09-13T08:38:34.184Z,97.30
2018-09-13T08:41:01.605Z,97.20
2018-09-13T08:43:29.064Z,97.10
2018-09-13T08:45:56.637Z,97.20
2018-09-13T08:48:24.088Z,97.40
2018-09-13T08:50:51.748Z,97.20
2018-09-13T08:53:18.973Z,97.40
2018-09-13T08:55:46.381Z,97.70
2018-09-13T08:58:13.864Z,97.20
2018-09-13T09:00:41.320Z,97.30
2018-09-13T09:03:08.778Z,97.40
2018-09-13T09:05:36.184Z,97.40
2018-09-13T09:08:03.724Z,97.90
2018-09-13T09:10:31.425Z,97.00
2018-09-13T09:12:58.892Z,96.80
2018-09-13T09:15:26.401Z,97.40
2018-09-13T09:17:53.943Z,97.60
2018-09-13T09:20:21.450Z,97.10
2018-09-13T09:22:48.843Z,97.10
2018-09-13T09:25:16.272Z,97.20
2018-09-13T09:27:43.712Z,96.50
2018-09-13T09:30:11.131Z,96.40
2018-09-13T09:32:38.569Z,97.30
2018-09-13T09:35:06.050Z,97.00
2018-09-13T09:37:33.416Z,97.00
2018-09-13T09:40:00.864Z,96.80
2018-09-13T09:42:28.355Z,97.20
2018-09-13T09:44:55.944Z,97.00
2018-09-13T09:47:23.329Z,96.50
2018-09-13T09:49:50.749Z,96.80
2018-09-13T09:52:18.182Z,97.00
2018-09-13T09:54:45.565Z,97.30
2018-09-13T09:57:13.068Z,97.70
2018-09-13T09:59:41.540Z,97.70
2018-09-13T10:02:14.403Z,98.00
2018-09-13T10:04:41.918Z,98.00
2018-09-13T10:07:09.255Z,98.30
2018-09-13T10:09:36.737Z,98.20
2018-09-13T10:12:04.128Z,98.10
2018-09-13T10:14:31.624Z,98.00
2018-09-13T10:17:04.665Z,97.80
2018-09-13T10:19:37.620Z,97.20
2018-09-13T10:22:10.600Z,97.30
2018-09-13T10:24:43.607Z,97.40
2018-09-13T10:27:16.477Z,97.00
2018-09-13T10:29:49.676Z,96.90
2018-09-13T10:32:22.478Z,96.60
2018-09-13T10:34:55.406Z,96.30
2018-09-13T10:37:28.423Z,96.40
2018-09-13T10:40:01.361Z,95.90
2018-09-13T10:42:34.236Z,96.00
2018-09-13T10:45:07.133Z,95.90
2018-09-13T10:47:42.166Z,96.00
2018-09-13T10:50:12.892Z,96.00
2018-09-13T10:52:42.974Z,95.30
2018-09-13T10:55:10.348Z,96.30
2018-09-13T10:57:42.779Z,95.20
2018-09-13T11:00:10.269Z,95.00
2018-09-13T11:02:37.713Z,94.10
2018-09-13T11:05:05.189Z,94.00
2018-09-13T11:07:32.646Z,94.60
2018-09-13T11:10:00.116Z,94.60
2018-09-13T11:12:31.895Z,93.90
2018-09-13T11:15:03.684Z,93.80
2018-09-13T11:17:31.356Z,94.50
2018-09-13T11:19:58.790Z,93.70
2018-09-13T11:22:26.192Z,93.70
2018-09-13T11:24:53.638Z,94.20
2018-09-13T11:27:21.065Z,93.60
2018-09-13T11:29:48.629Z,93.80
2018-09-13T11:32:16.051Z,94.30
2018-09-13T11:34:44.304Z,94.40
2018-09-13T11:37:14.428Z,93.40
2018-09-13T11:39:41.849Z,93.70
2018-09-13T11:42:09.348Z,93.50
2018-09-13T11:44:36.888Z,94.20
2018-09-13T11:47:04.820Z,94.10
2018-09-13T11:49:32.345Z,94.20
2018-09-13T11:51:59.740Z,95.30
2018-09-13T11:54:27.703Z,93.20
2018-09-13T11:56:54.883Z,94.80
2018-09-13T11:59:22.289Z,95.30
2018-09-13T12:01:49.784Z,94.70
2018-09-13T12:04:17.233Z,92.50
2018-09-13T12:06:44.744Z,93.80
2018-09-13T12:09:13.756Z,94.30
2018-09-13T12:11:41.413Z,93.90
2018-09-13T12:14:09.170Z,93.40
2018-09-13T12:16:36.605Z,94.10
2018-09-13T12:19:05.940Z,93.20
2018-09-13T12:21:33.377Z,92.20
2018-09-13T12:24:00.812Z,92.20
2018-09-13T12:26:28.237Z,91.90
2018-09-13T12:28:55.832Z,93.10
2018-09-13T12:31:23.236Z,93.00
2018-09-13T12:33:50.822Z,92.30
2018-09-13T12:36:18.182Z,92.30
2018-09-13T12:38:45.674Z,92.40
2018-09-13T12:41:13.085Z,92.30
2018-09-13T12:43:40.504Z,92.80
2018-09-13T12:46:07.916Z,91.70
2018-09-13T12:48:35.361Z,92.20
2018-09-13T12:51:02.847Z,93.20
2018-09-13T12:53:30.360Z,91.60
2018-09-13T12:55:57.828Z,92.40
2018-09-13T12:58:26.194Z,92.60
2018-09-13T13:00:53.620Z,92.30
2018-09-13T13:03:21.460Z,92.90
2018-09-13T13:05:49.613Z,93.70
2018-09-13T13:08:17.148Z,93.70
2018-09-13T13:10:44.573Z,94.20
2018-09-13T13:13:12.069Z,93.60
2018-09-13T13:15:39.469Z,93.10
2018-09-13T13:18:07.037Z,93.50
2018-09-13T13:20:34.533Z,93.20
2018-09-13T13:23:02.049Z,93.40
2018-09-13T13:25:29.553Z,93.80
2018-09-13T13:27:57.029Z,93.00
2018-09-13T13:30:24.821Z,93.60
2018-09-13T13:32:52.249Z,94.80
2018-09-13T13:35:19.717Z,95.10
2018-09-13T13:37:47.239Z,95.60
2018-09-13T13:40:14.684Z,95.00
2018-09-13T13:42:42.213Z,95.30
2018-09-13T13:45:09.616Z,95.50
2018-09-13T13:47:37.063Z,95.40
2018-09-13T13:50:04.516Z,95.40
2018-09-13T13:52:32.140Z,96.00
2018-09-13T13:54:59.740Z,96.00
2018-09-13T13:57:27.333Z,96.20
2018-09-13T13:59:55.035Z,95.80
2018-09-13T14:02:22.423Z,95.70
2018-09-13T14:04:49.865Z,95.70
2018-09-13T14:07:17.502Z,95.80
2018-09-13T14:09:45.085Z,96.00
2018-09-13T14:12:12.340Z,96.40
2018-09-13T14:14:39.848Z,95.90
2018-09-13T14:17:07.368Z,96.40
2018-09-13T14:19:34.973Z,96.30
2018-09-13T14:22:02.563Z,95.60
2018-09-13T14:24:30.009Z,96.20
2018-09-13T14:26:57.464Z,96.20
2018-09-13T14:29:24.921Z,95.60
2018-09-13T14:31:52.368Z,95.70
2018-09-13T14:34:19.887Z,95.50
2018-09-13T14:36:47.322Z,95.50
2018-09-13T14:39:14.723Z,95.60
2018-09-13T14:41:42.260Z,95.40
2018-09-13T14:44:09.672Z,96.20
2018-09-13T14:46:37.492Z,95.40
2018-09-13T14:49:05.086Z,95.50
2018-09-13T14:51:32.609Z,95.90
2018-09-13T14:54:00.012Z,95.70
2018-09-13T14:56:27.541Z,95.60
2018-09-13T14:58:55.067Z,96.50
2018-09-13T15:01:22.530Z,96.10
2018-09-13T15:03:50.085Z,96.00
2018-09-13T15:06:17.537Z,95.70
2018-09-13T15:08:45.125Z,95.90
2018-09-13T15:11:12.545Z,96.30
2018-09-13T15:13:39.993Z,95.70
2018-09-13T15:16:07.592Z,95.90
2018-09-13T15:18:35.035Z,95.50
2018-09-13T15:21:02.511Z,95.40
2018-09-13T15:23:30.033Z,95.90
2018-09-13T15:25:57.468Z,96.10
2018-09-13T15:28:24.880Z,96.30
2018-09-13T15:30:52.481Z,95.90
2018-09-13T15:33:19.949Z,95.90
2018-09-13T15:35:47.522Z,96.00
2018-09-13T15:38:14.951Z,95.50
2018-09-13T15:40:42.397Z,95.80
2018-09-13T15:43:10.091Z,95.60
2018-09-13T15:45:37.556Z,96.10
2018-09-13T15:48:05.017Z,96.50
2018-09-13T15:50:32.534Z,96.80
2018-09-13T15:53:00.076Z,96.40
2018-09-13T15:55:27.560Z,96.30
2018-09-13T15:57:55.036Z,96.50
2018-09-13T16:00:22.530Z,96.00
2018-09-13T16:02:50.012Z,95.90
2018-09-13T16:05:17.478Z,96.30
2018-09-13T16:07:45.105Z,96.40
2018-09-13T16:10:12.612Z,96.00
2018-09-13T16:12:40.611Z,96.30
2018-09-13T16:15:08.065Z,96.30
2018-09-13T16:17:35.496Z,96.20
2018-09-13T16:20:03.100Z,96.50
2018-09-13T16:22:31.516Z,96.40
2018-09-13T16:24:59.197Z,96.70
2018-09-13T16:27:26.801Z,96.70
2018-09-13T16:29:54.408Z,96.30
2018-09-13T16:32:23.201Z,96.50
2018-09-13T16:34:51.561Z,96.60
2018-09-13T16:37:24.580Z,96.80
2018-09-13T16:39:57.669Z,96.80
2018-09-13T16:42:31.675Z,96.50
2018-09-13T16:44:59.159Z,96.80
2018-09-13T16:47:33.467Z,97.10
2018-09-13T16:50:01.762Z,96.90
2018-09-13T16:52:30.062Z,97.00
2018-09-13T16:54:57.591Z,96.80
2018-09-13T16:57:25.041Z,96.90
2018-09-13T16:59:52.745Z,97.10
2018-09-13T17:02:20.372Z,97.20
2018-09-13T17:04:48.861Z,96.90
2018-09-13T17:07:16.313Z,97.60
2018-09-13T17:09:43.786Z,97.50
2018-09-13T17:12:11.204Z,97.60
2018-09-13T17:14:38.636Z,97.70
2018-09-13T17:17:06.076Z,97.40
2018-09-13T17:19:33.478Z,97.40
2018-09-13T17:22:00.936Z,97.60
2018-09-13T17:24:28.345Z,97.70
2018-09-13T17:26:55.823Z,97.80
2018-09-13T17:29:23.361Z,97.60
2018-09-13T17:31:50.796Z,97.90
2018-09-13T17:34:18.877Z,97.90
2018-09-13T17:36:47.868Z,97.80
2018-09-13T17:39:15.360Z,97.90
2018-09-13T17:41:43.134Z,98.10
2018-09-13T17:44:10.596Z,98.00
2018-09-13T17:46:38.597Z,98.00
2018-09-13T17:49:06.045Z,98.20
2018-09-13T17:51:33.448Z,98.20
2018-09-13T17:54:00.966Z,98.20
2018-09-13T17:56:31.469Z,98.00
2018-09-13T17:58:59.007Z,98.30
2018-09-13T18:01:26.415Z,98.40
2018-09-13T18:03:53.895Z,98.40
2018-09-13T18:06:21.921Z,98.20
2018-09-13T18:08:49.458Z,98.20
2018-09-13T18:11:17.019Z,98.40
2018-09-13T18:13:44.493Z,98.40
2018-09-13T18:16:12.009Z,98.50
2018-09-13T18:18:39.512Z,98.30
2018-09-13T18:21:07.133Z,98.50
2018-09-13T18:23:34.555Z,98.30
2018-09-13T18:26:02.097Z,98.40
2018-09-13T18:28:29.596Z,98.30
2018-09-13T18:30:57.043Z,98.10
2018-09-13T18:33:24.546Z,98.20
2018-09-13T18:35:52.004Z,98.30
2018-09-13T18:38:19.443Z,98.20
2018-09-13T18:40:46.945Z,98.20
2018-09-13T18:43:15.572Z,98.30
2018-09-13T18:45:43.176Z,98.40
2018-09-13T18:48:10.758Z,98.40
2018-09-13T18:50:38.393Z,98.90
2018-09-13T18:53:05.924Z,99.10
2018-09-13T18:55:33.366Z,99.00
2018-09-13T18:58:00.789Z,99.30
2018-09-13T19:00:28.349Z,99.30
2018-09-13T19:02:55.859Z,99.30
2018-09-13T19:05:23.476Z,99.50
2018-09-13T19:07:50.859Z,99.50
2018-09-13T19:10:18.286Z,99.80
2018-09-13T19:12:45.792Z,99.80
2018-09-13T19:15:14.289Z,99.90
2018-09-13T19:17:41.797Z,99.90
2018-09-13T19:20:09.288Z,99.90
2018-09-13T19:22:37.766Z,99.90
2018-09-13T19:25:05.204Z,99.90
2018-09-13T19:27:32.657Z,99.90
2018-09-13T19:30:00.118Z,99.90
2018-09-13T19:32:27.621Z,99.90
2018-09-13T19:34:55.052Z,99.90
2018-09-13T19:37:22.497Z,99.90
2018-09-13T19:39:49.954Z,99.90
2018-09-13T19:42:17.744Z,99.90
2018-09-13T19:44:45.169Z,99.90
2018-09-13T19:47:12.724Z,99.90
2018-09-13T19:49:40.228Z,99.90
2018-09-13T19:52:07.844Z,99.90
2018-09-13T19:54:35.370Z,99.90
2018-09-13T19:57:02.768Z,99.90
2018-09-13T19:59:30.291Z,99.90
2018-09-13T20:01:57.909Z,99.90
2018-09-13T20:04:25.356Z,99.90
2018-09-13T20:06:52.808Z,99.90
2018-09-13T20:09:20.232Z,99.90
2018-09-13T20:11:48.105Z,99.90
2018-09-13T20:14:15.739Z,99.90
2018-09-13T20:16:43.220Z,99.90
2018-09-13T20:19:10.811Z,99.90
2018-09-13T20:21:38.283Z,99.90
2018-09-13T20:24:05.780Z,99.90
2018-09-13T20:26:33.301Z,99.90
2018-09-13T20:29:00.761Z,99.90
2018-09-13T20:31:28.145Z,99.90
2018-09-13T20:33:55.709Z,99.90
2018-09-13T20:36:23.573Z,99.90
2018-09-13T20:38:50.986Z,99.90
2018-09-13T20:41:18.500Z,99.90
2018-09-13T20:43:46.027Z,99.90
2018-09-13T20:46:13.482Z,99.90
2018-09-13T20:48:40.960Z,99.90
2018-09-13T20:51:08.395Z,99.90
2018-09-13T20:53:35.867Z,99.90
2018-09-13T20:56:03.288Z,99.90
2018-09-13T20:58:30.942Z,99.90
2018-09-13T21:00:58.388Z,99.90
2018-09-13T21:03:25.805Z,99.90
2018-09-13T21:05:53.224Z,99.90
2018-09-13T21:08:20.661Z,99.90
2018-09-13T21:10:48.101Z,99.90
2018-09-13T21:13:15.636Z,99.90
2018-09-13T21:15:43.208Z,99.90
2018-09-13T21:18:10.731Z,99.90
2018-09-13T21:20:38.225Z,99.90
2018-09-13T21:23:05.659Z,99.90
2018-09-13T21:25:33.096Z,99.90
2018-09-13T21:28:00.567Z,99.90
2018-09-13T21:30:28.056Z,99.90
2018-09-13T21:32:55.589Z,99.90
2018-09-13T21:35:23.046Z,99.90
2018-09-13T21:37:50.465Z,99.90
2018-09-13T21:40:17.937Z,99.90
2018-09-13T21:42:45.386Z,99.90
2018-09-13T21:45:12.814Z,99.90
2018-09-13T21:47:41.276Z,99.90
2018-09-13T21:50:08.884Z,99.90
2018-09-13T21:52:36.354Z,99.90
2018-09-13T21:55:03.904Z,99.90
2018-09-13T21:57:31.333Z,99.90
2018-09-13T21:59:58.740Z,99.90
2018-09-13T22:02:26.161Z,99.90
2018-09-13T22:04:53.717Z,99.90
2018-09-13T22:07:21.241Z,99.90
2018-09-13T22:09:48.645Z,99.90
2018-09-13T22:12:16.182Z,99.90
2018-09-13T22:14:43.612Z,99.90
2018-09-13T22:17:11.465Z,99.90
2018-09-13T22:19:38.920Z,99.90
2018-09-13T22:22:06.357Z,99.90
2018-09-13T22:24:33.909Z,99.90
2018-09-13T22:27:01.337Z,99.90
2018-09-13T22:29:28.824Z,99.90
2018-09-13T22:31:56.255Z,99.90
2018-09-13T22:34:23.661Z,99.90
2018-09-13T22:36:51.072Z,99.90
2018-09-13T22:39:19.260Z,99.90
2018-09-13T22:41:46.696Z,99.90
2018-09-13T22:44:14.139Z,99.90
2018-09-13T22:46:41.785Z,99.90
2018-09-13T22:49:09.199Z,99.90
2018-09-13T22:51:36.625Z,99.90
2018-09-13T22:54:04.062Z,99.90
2018-09-13T22:56:31.544Z,99.90
2018-09-13T22:58:59.264Z,99.90
2018-09-13T23:01:26.754Z,99.90
2018-09-13T23:03:54.301Z,99.90
2018-09-13T23:06:21.750Z,99.90
2018-09-13T23:08:49.197Z,99.90
2018-09-13T23:11:16.629Z,99.90
2018-09-13T23:13:44.056Z,99.90
2018-09-13T23:16:11.644Z,99.90
2018-09-13T23:18:39.101Z,99.90
2018-09-13T23:21:06.741Z,99.90
2018-09-13T23:23:34.180Z,99.90
2018-09-13T23:26:01.630Z,99.90
2018-09-13T23:28:29.037Z,99.90
2018-09-13T23:30:56.477Z,99.90
2018-09-13T23:33:23.922Z,99.90
2018-09-13T23:35:51.428Z,99.90
2018-09-13T23:38:18.931Z,99.90
2018-09-13T23:40:46.618Z,99.90
2018-09-13T23:43:13.877Z,99.90
2018-09-13T23:45:41.288Z,99.90
2018-09-13T23:48:08.709Z,99.90
2018-09-13T23:50:36.208Z,99.90
2018-09-13T23:53:03.666Z,99.90
2018-09-13T23:55:31.121Z,99.90
2018-09-13T23:57:58.545Z,99.90
